sensor_id;sensor_type;location;lat;lon;timestamp;P1;P2;P0
50041;PMS7003;44598;51.606;5.912;2023-01-31T00:11:21;6.85;5.9;2.41
50041;PMS7003;44598;51.606;5.912;2023-01-31T00:24:41;6.13;5.24;2.41
50041;PMS7003;44598;51.606;5.912;2023-01-31T00:38:01;6.01;5.57;2.52
50041;PMS7003;44598;51.606;5.912;2023-01-31T00:51:21;9.01;5.79;2.3
50041;PMS7003;44598;51.606;5.912;2023-01-31T01:04:41;5.05;6.0;2.41
50041;PMS7003;44598;51.606;5.912;2023-01-31T01:18:00;9.85;6.44;2.41
50041;PMS7003;44598;51.606;5.912;2023-01-31T01:31:20;8.29;6.11;2.41
50041;PMS7003;44598;51.606;5.912;2023-01-31T01:58:00;10.69;7.09;3.28
50041;PMS7003;44598;51.606;5.912;2023-01-31T02:11:20;12.25;8.73;3.82
50041;PMS7003;44598;51.606;5.912;2023-01-31T02:24:39;12.61;9.49;4.04
50041;PMS7003;44598;51.606;5.912;2023-01-31T02:37:59;13.33;10.91;4.7
50041;PMS7003;44598;51.606;5.912;2023-01-31T02:51:19;13.33;10.58;5.46
50041;PMS7003;44598;51.606;5.912;2023-01-31T03:04:39;17.17;13.74;6.22
50041;PMS7003;44598;51.606;5.912;2023-01-31T03:31:19;15.73;15.16;7.09
50041;PMS7003;44598;51.606;5.912;2023-01-31T03:44:38;23.17;17.45;8.18
50041;PMS7003;44598;51.606;5.912;2023-01-31T03:57:58;24.85;18.43;8.84
50041;PMS7003;44598;51.606;5.912;2023-01-31T04:11:18;25.57;19.3;8.95
50041;PMS7003;44598;51.606;5.912;2023-01-31T04:24:38;23.17;20.5;9.49
50041;PMS7003;44598;51.606;5.912;2023-01-31T04:37:58;23.89;20.5;9.49
50041;PMS7003;44598;51.606;5.912;2023-01-31T04:51:17;24.85;21.05;9.38
50041;PMS7003;44598;51.606;5.912;2023-01-31T05:04:37;27.01;22.14;9.82
50041;PMS7003;44598;51.606;5.912;2023-01-31T05:17:57;26.05;20.5;9.17
50041;PMS7003;44598;51.606;5.912;2023-01-31T05:31:17;27.61;22.14;10.04
50041;PMS7003;44598;51.606;5.912;2023-01-31T05:44:37;27.25;22.57;10.36
50041;PMS7003;44598;51.606;5.912;2023-01-31T05:57:57;26.65;21.26;9.93
50041;PMS7003;44598;51.606;5.912;2023-01-31T06:11:16;25.69;21.92;10.15
50041;PMS7003;44598;51.606;5.912;2023-01-31T06:37:58;26.29;20.61;9.27
50041;PMS7003;44598;51.606;5.912;2023-01-31T07:17:58;22.45;18.65;7.97
50041;PMS7003;44598;51.606;5.912;2023-01-31T07:31:18;19.21;19.08;7.97
50041;PMS7003;44598;51.606;5.912;2023-01-31T07:44:37;21.13;17.23;7.64
50041;PMS7003;44598;51.606;5.912;2023-01-31T07:57:57;16.69;15.05;7.09
50041;PMS7003;44598;51.606;5.912;2023-01-31T08:11:17;20.53;15.16;6.66
50041;PMS7003;44598;51.606;5.912;2023-01-31T08:24:37;16.33;15.27;6.77
50041;PMS7003;44598;51.606;5.912;2023-01-31T08:37:57;14.41;13.42;6.88
50041;PMS7003;44598;51.606;5.912;2023-01-31T08:51:16;13.33;12.87;5.79
50041;PMS7003;44598;51.606;5.912;2023-01-31T09:04:36;12.13;11.89;5.57
50041;PMS7003;44598;51.606;5.912;2023-01-31T09:17:56;11.17;10.69;4.59
50041;PMS7003;44598;51.606;5.912;2023-01-31T09:31:16;10.33;9.49;4.48
50041;PMS7003;44598;51.606;5.912;2023-01-31T09:44:36;9.13;7.75;3.82
50041;PMS7003;44598;51.606;5.912;2023-01-31T09:57:55;7.57;8.4;4.15
50041;PMS7003;44598;51.606;5.912;2023-01-31T10:11:15;7.45;8.08;4.26
50041;PMS7003;44598;51.606;5.912;2023-01-31T10:37:55;9.97;8.84;4.48
50041;PMS7003;44598;51.606;5.912;2023-01-31T10:51:15;9.25;10.8;5.79
50041;PMS7003;44598;51.606;5.912;2023-01-31T11:04:35;15.37;14.72;8.18
50041;PMS7003;44598;51.606;5.912;2023-01-31T11:17:54;18.85;17.01;8.95
50041;PMS7003;44598;51.606;5.912;2023-01-31T11:31:14;20.05;18.54;10.15
50041;PMS7003;44598;51.606;5.912;2023-01-31T11:44:34;22.21;19.74;10.58
50041;PMS7003;44598;51.606;5.912;2023-01-31T11:57:54;24.37;20.61;12.0
50041;PMS7003;44598;51.606;5.912;2023-01-31T12:37:53;26.41;22.25;13.2
50041;PMS7003;44598;51.606;5.912;2023-01-31T12:51:13;29.53;24.53;13.74
50041;PMS7003;44598;51.606;5.912;2023-01-31T13:04:33;29.17;24.53;13.74
50041;PMS7003;44598;51.606;5.912;2023-01-31T13:17:53;29.17;24.43;13.85
50041;PMS7003;44598;51.606;5.912;2023-01-31T13:31:13;27.73;24.43;13.42
50041;PMS7003;44598;51.606;5.912;2023-01-31T13:44:32;25.81;23.01;13.31
50041;PMS7003;44598;51.606;5.912;2023-01-31T13:57:52;25.93;23.12;12.87
50041;PMS7003;44598;51.606;5.912;2023-01-31T14:11:12;23.65;21.05;12.11
50041;PMS7003;44598;51.606;5.912;2023-01-31T14:24:32;21.13;18.76;10.26
50041;PMS7003;44598;51.606;5.912;2023-01-31T14:37:52;16.33;14.18;8.4
50041;PMS7003;44598;51.606;5.912;2023-01-31T14:51:11;13.93;12.54;7.42
50041;PMS7003;44598;51.606;5.912;2023-01-31T15:04:31;12.25;10.69;6.55
50041;PMS7003;44598;51.606;5.912;2023-01-31T15:31:11;7.57;9.38;6.0
50041;PMS7003;44598;51.606;5.912;2023-01-31T15:44:31;9.37;9.49;5.9
50041;PMS7003;44598;51.606;5.912;2023-01-31T15:57:51;7.69;8.84;5.68
50041;PMS7003;44598;51.606;5.912;2023-01-31T16:11:10;8.41;8.73;5.35
50041;PMS7003;44598;51.606;5.912;2023-01-31T16:24:30;9.37;8.95;5.13
50041;PMS7003;44598;51.606;5.912;2023-01-31T16:37:50;8.89;7.53;4.37
50041;PMS7003;44598;51.606;5.912;2023-01-31T16:51:10;6.37;6.88;3.93
50041;PMS7003;44598;51.606;5.912;2023-01-31T17:04:30;4.45;5.9;3.71
50041;PMS7003;44598;51.606;5.912;2023-01-31T17:17:49;5.77;5.02;2.73
50041;PMS7003;44598;51.606;5.912;2023-01-31T17:44:29;2.52;4.04;2.3
50041;PMS7003;44598;51.606;5.912;2023-01-31T17:57:49;5.17;4.8;2.52
50041;PMS7003;44598;51.606;5.912;2023-01-31T18:24:29;4.69;5.79;3.28
50041;PMS7003;44598;51.606;5.912;2023-01-31T18:37:48;7.57;7.64;3.93
50041;PMS7003;44598;51.606;5.912;2023-01-31T19:04:28;9.13;7.09;4.15
50041;PMS7003;44598;51.606;5.912;2023-01-31T19:44:27;6.37;6.77;3.61
50041;PMS7003;44598;51.606;5.912;2023-01-31T19:57:47;8.41;8.73;4.48
50041;PMS7003;44598;51.606;5.912;2023-01-31T20:11:07;12.37;9.17;4.91
50041;PMS7003;44598;51.606;5.912;2023-01-31T20:24:27;10.93;10.15;5.24
50041;PMS7003;44598;51.606;5.912;2023-01-31T20:37:47;11.29;11.02;5.13
50041;PMS7003;44598;51.606;5.912;2023-01-31T20:51:06;13.45;10.58;5.24
50041;PMS7003;44598;51.606;5.912;2023-01-31T21:17:46;9.01;9.93;4.91
50041;PMS7003;44598;51.606;5.912;2023-01-31T21:31:06;13.09;10.58;4.8
50041;PMS7003;44598;51.606;5.912;2023-01-31T21:57:45;10.45;9.49;4.37
50041;PMS7003;44598;51.606;5.912;2023-01-31T22:11:05;10.57;7.86;3.93
50041;PMS7003;44598;51.606;5.912;2023-01-31T22:24:25;6.85;7.64;3.28
50041;PMS7003;44598;51.606;5.912;2023-01-31T22:37:45;4.33;4.8;2.62
50041;PMS7003;44598;51.606;5.912;2023-01-31T22:51:05;6.01;6.33;2.41
50041;PMS7003;44598;51.606;5.912;2023-01-31T23:17:44;4.45;5.13;2.73
50041;PMS7003;44598;51.606;5.912;2023-01-31T23:31:04;6.13;5.13;2.52
50041;PMS7003;44598;51.606;5.912;2023-01-31T23:44:24;8.29;6.44;2.84
50041;PMS7003;44598;51.606;5.912;2023-01-31T23:57:44;9.01;8.08;3.71
